Time;durP1;ratioP1;P1;durP2;ratioP2;P2;SDS_P1;SDS_P2;PMS_P1;PMS_P2;Temp;Humidity;BMP_temperature;BMP_pressure;BME280_temperature;BME280_humidity;BME280_pressure;Samples;Min_cycle;Max_cycle;Signal;HPM_P1;HPM_P2
2023/10/31 00:00:17;;;;;;;1.75;0.60;;;12.40;99.90;;;;;;5006184;28;20077;-77
2023/10/31 00:02:44;;;;;;;1.25;0.60;;;12.40;99.90;;;;;;5002270;28;20050;-79
2023/10/31 00:05:10;;;;;;;0.93;0.50;;;12.40;99.90;;;;;;5001767;28;20046;-78
2023/10/31 00:07:37;;;;;;;0.30;0.30;;;12.40;99.90;;;;;;4999209;28;20125;-78
2023/10/31 00:10:04;;;;;;;1.08;0.40;;;12.40;99.90;;;;;;4997427;28;20062;-78
2023/10/31 00:12:32;;;;;;;0.75;0.40;;;12.40;99.90;;;;;;5009918;28;20045;-77
2023/10/31 00:14:58;;;;;;;0.60;0.50;;;12.40;99.90;;;;;;5012690;28;20054;-76
2023/10/31 00:17:25;;;;;;;3.10;0.60;;;12.40;99.90;;;;;;5003558;28;20180;-78
2023/10/31 00:19:52;;;;;;;0.77;0.47;;;12.40;99.90;;;;;;4999748;28;20054;-78
2023/10/31 00:22:19;;;;;;;1.17;0.50;;;12.40;99.90;;;;;;4996743;28;20430;-77
2023/10/31 00:24:46;;;;;;;2.97;0.47;;;12.40;99.90;;;;;;4994204;28;20053;-77
2023/10/31 00:27:14;;;;;;;1.48;0.50;;;12.40;99.90;;;;;;5003539;28;20053;-77
2023/10/31 00:29:41;;;;;;;1.23;0.40;;;12.40;99.90;;;;;;5003082;28;20046;-77
2023/10/31 00:32:07;;;;;;;2.20;0.50;;;12.40;99.90;;;;;;4994934;28;20506;-77
2023/10/31 00:34:34;;;;;;;1.08;0.73;;;12.40;99.90;;;;;;4995074;28;20078;-77
2023/10/31 00:37:01;;;;;;;0.98;0.40;;;12.40;99.90;;;;;;4995700;28;20133;-77
2023/10/31 00:39:28;;;;;;;3.40;0.50;;;12.40;99.90;;;;;;4993746;28;20403;-77
2023/10/31 00:41:55;;;;;;;1.40;0.57;;;12.40;99.90;;;;;;4998836;28;20092;-77
2023/10/31 00:44:21;;;;;;;8.60;0.70;;;12.40;99.90;;;;;;5001693;28;20100;-77
2023/10/31 00:46:48;;;;;;;2.75;0.60;;;12.50;99.90;;;;;;4998309;28;20080;-78
2023/10/31 00:49:15;;;;;;;1.58;0.60;;;12.40;99.90;;;;;;4997898;28;20129;-78
2023/10/31 00:51:42;;;;;;;0.52;0.43;;;12.40;99.90;;;;;;4995322;28;20457;-78
2023/10/31 00:54:08;;;;;;;1.38;0.60;;;12.30;99.90;;;;;;4999749;28;20043;-77
2023/10/31 00:56:35;;;;;;;1.83;0.50;;;12.30;99.90;;;;;;5008407;28;20053;-77
2023/10/31 00:59:02;;;;;;;4.13;0.60;;;12.30;99.90;;;;;;5006263;28;20050;-78
2023/10/31 01:01:28;;;;;;;1.05;0.57;;;12.30;99.90;;;;;;5017850;28;20050;-78
2023/10/31 01:03:55;;;;;;;3.00;0.55;;;12.30;99.90;;;;;;5006378;28;20066;-77
2023/10/31 01:06:22;;;;;;;3.30;0.70;;;12.30;99.90;;;;;;4995757;28;20047;-78
2023/10/31 01:08:49;;;;;;;4.70;0.50;;;12.20;99.90;;;;;;4997916;28;20043;-76
2023/10/31 01:11:15;;;;;;;2.50;1.45;;;12.20;99.90;;;;;;5008657;28;20046;-77
2023/10/31 01:13:42;;;;;;;1.08;0.50;;;12.20;99.90;;;;;;5000809;28;20506;-78
2023/10/31 01:16:09;;;;;;;2.03;0.40;;;12.10;99.90;;;;;;5005241;28;20042;-77
2023/10/31 01:18:36;;;;;;;0.90;0.50;;;12.10;99.90;;;;;;5000600;28;20042;-76
2023/10/31 01:21:03;;;;;;;1.13;0.50;;;12.10;99.90;;;;;;5000990;28;20434;-77
2023/10/31 01:23:29;;;;;;;2.05;0.60;;;12.10;99.90;;;;;;5005331;28;20092;-77
2023/10/31 01:25:56;;;;;;;2.85;0.50;;;12.10;99.90;;;;;;5006031;28;20078;-78
2023/10/31 01:28:23;;;;;;;2.35;1.02;;;12.10;99.90;;;;;;5006924;28;20084;-77
2023/10/31 01:30:49;;;;;;;2.47;0.60;;;12.20;99.90;;;;;;5002294;28;20042;-77
2023/10/31 01:33:16;;;;;;;2.08;0.50;;;12.10;99.90;;;;;;5002332;28;20104;-77
2023/10/31 01:35:43;;;;;;;0.98;0.43;;;12.10;99.90;;;;;;5000422;28;20095;-77
2023/10/31 01:38:10;;;;;;;1.05;0.45;;;12.10;99.90;;;;;;4999978;28;20429;-76
2023/10/31 01:40:37;;;;;;;1.63;0.55;;;12.10;99.90;;;;;;5007375;28;20088;-77
2023/10/31 01:43:03;;;;;;;0.63;0.40;;;12.10;99.90;;;;;;5005495;28;20061;-77
2023/10/31 01:45:30;;;;;;;3.45;0.70;;;12.10;99.90;;;;;;5004312;28;20054;-77
2023/10/31 01:47:58;;;;;;;0.73;0.60;;;12.10;99.90;;;;;;5001474;28;20105;-77
2023/10/31 01:50:25;;;;;;;2.50;0.65;;;12.10;99.90;;;;;;4999646;28;20058;-77
2023/10/31 01:52:52;;;;;;;5.05;0.70;;;12.10;99.90;;;;;;5006119;28;20054;-77
2023/10/31 01:55:19;;;;;;;2.58;0.75;;;12.10;99.90;;;;;;5007904;28;20511;-77
2023/10/31 01:57:48;;;;;;;3.05;0.70;;;12.00;99.90;;;;;;5003913;28;20088;-77
2023/10/31 02:00:15;;;;;;;1.80;0.60;;;12.00;99.90;;;;;;5004301;28;20556;-78
2023/10/31 02:02:42;;;;;;;10.52;1.02;;;12.00;99.90;;;;;;5000547;28;20562;-77
2023/10/31 02:05:10;;;;;;;1.25;0.70;;;12.00;99.90;;;;;;5000591;28;20506;-78
2023/10/31 02:07:37;;;;;;;5.93;1.10;;;12.00;99.90;;;;;;5008018;28;20493;-76
2023/10/31 02:10:04;;;;;;;1.20;0.68;;;11.90;99.90;;;;;;5005817;28;20054;-77
2023/10/31 02:12:34;;;;;;;2.28;0.40;;;11.90;99.90;;;;;;5004479;28;20045;-77
2023/10/31 02:15:02;;;;;;;2.72;0.70;;;11.90;99.90;;;;;;5001128;28;20046;-77
2023/10/31 02:17:29;;;;;;;2.35;0.60;;;11.90;99.90;;;;;;5000842;28;20046;-76
2023/10/31 02:19:56;;;;;;;3.40;0.68;;;11.90;99.90;;;;;;5002099;28;20069;-78
2023/10/31 02:22:24;;;;;;;1.65;0.55;;;11.80;99.90;;;;;;4998509;28;20053;-76
2023/10/31 02:24:51;;;;;;;3.08;0.90;;;11.90;99.90;;;;;;5001320;28;20050;-78
2023/10/31 02:27:18;;;;;;;1.17;0.70;;;11.80;99.90;;;;;;5001623;28;20054;-78
2023/10/31 02:29:44;;;;;;;3.22;1.10;;;11.90;99.90;;;;;;4998068;28;20112;-77
2023/10/31 02:32:11;;;;;;;3.30;0.88;;;11.80;99.90;;;;;;4997177;28;20433;-78
2023/10/31 02:34:38;;;;;;;2.50;0.85;;;11.80;99.90;;;;;;4998654;28;20038;-76
2023/10/31 02:37:05;;;;;;;2.95;1.10;;;11.90;99.90;;;;;;5002897;28;20445;-78
2023/10/31 02:39:33;;;;;;;1.45;0.95;;;11.80;99.90;;;;;;5018268;28;20042;-76
2023/10/31 02:41:59;;;;;;;3.75;0.63;;;11.90;99.90;;;;;;4999127;28;20490;-78
2023/10/31 02:44:26;;;;;;;5.03;0.70;;;11.90;99.90;;;;;;4997473;28;20096;-77
2023/10/31 02:46:53;;;;;;;2.75;0.80;;;11.90;99.90;;;;;;4995232;28;20521;-77
2023/10/31 02:49:20;;;;;;;2.33;0.80;;;11.80;99.90;;;;;;4996611;28;20057;-78
2023/10/31 02:51:47;;;;;;;3.63;1.05;;;11.90;99.90;;;;;;5017026;28;20042;-77
2023/10/31 02:54:14;;;;;;;3.83;0.90;;;11.90;99.90;;;;;;5002068;28;20050;-78
2023/10/31 02:56:41;;;;;;;6.45;0.95;;;11.90;99.90;;;;;;4998981;28;20043;-77
2023/10/31 02:59:08;;;;;;;1.98;0.80;;;11.90;99.90;;;;;;4995245;28;20050;-78
2023/10/31 03:01:35;;;;;;;2.40;0.63;;;11.90;99.90;;;;;;4992123;28;20058;-77
2023/10/31 03:04:02;;;;;;;6.50;0.93;;;11.90;99.90;;;;;;5004088;28;20078;-79
2023/10/31 03:06:29;;;;;;;1.92;0.82;;;12.00;99.90;;;;;;5006326;28;20052;-78
2023/10/31 03:08:56;;;;;;;2.05;0.93;;;11.90;99.90;;;;;;5001623;28;20054;-78
2023/10/31 03:11:24;;;;;;;3.08;0.52;;;11.90;99.90;;;;;;4996522;28;20054;-79
2023/10/31 03:13:53;;;;;;;3.78;0.90;;;11.90;99.90;;;;;;4998614;28;20043;-78
2023/10/31 03:16:20;;;;;;;4.13;1.23;;;11.90;99.90;;;;;;4998698;28;20082;-77
2023/10/31 03:18:47;;;;;;;5.90;1.30;;;12.00;99.90;;;;;;5013810;28;20073;-77
2023/10/31 03:21:14;;;;;;;5.35;0.85;;;12.00;99.90;;;;;;5011349;28;20054;-78
2023/10/31 03:23:43;;;;;;;3.78;0.90;;;11.90;99.90;;;;;;5004303;28;20050;-78
2023/10/31 03:26:10;;;;;;;2.00;0.80;;;11.90;99.90;;;;;;5002414;28;20101;-78
2023/10/31 03:28:36;;;;;;;2.15;0.73;;;12.00;99.90;;;;;;5000434;28;20046;-79
2023/10/31 03:31:04;;;;;;;2.05;1.00;;;12.00;99.90;;;;;;4991155;28;20054;-78
2023/10/31 03:33:31;;;;;;;3.53;0.80;;;11.90;99.90;;;;;;5007533;28;20077;-79
2023/10/31 03:35:58;;;;;;;4.22;1.00;;;12.00;99.90;;;;;;5003345;28;20058;-79
2023/10/31 03:38:24;;;;;;;4.40;1.00;;;11.90;99.90;;;;;;5007992;28;20046;-78
2023/10/31 03:40:52;;;;;;;12.43;2.28;;;11.90;99.90;;;;;;5000808;28;20047;-78
2023/10/31 03:43:19;;;;;;;6.43;0.90;;;11.90;99.90;;;;;;4999047;28;20066;-78
2023/10/31 03:45:47;;;;;;;3.15;0.90;;;11.90;99.90;;;;;;5001974;28;20053;-78
2023/10/31 03:48:16;;;;;;;4.03;0.70;;;11.90;99.90;;;;;;5004406;28;20060;-79
2023/10/31 03:50:43;;;;;;;5.45;0.82;;;11.90;99.90;;;;;;5003961;28;20461;-78
2023/10/31 03:53:10;;;;;;;4.63;0.98;;;11.90;99.90;;;;;;5001488;28;20506;-79
2023/10/31 03:55:37;;;;;;;3.25;0.82;;;11.90;99.90;;;;;;5001538;28;20073;-78
2023/10/31 03:58:04;;;;;;;7.95;0.70;;;11.80;99.90;;;;;;5001146;28;20494;-79
2023/10/31 04:00:30;;;;;;;4.38;0.80;;;11.80;99.90;;;;;;5014015;28;20042;-78
2023/10/31 04:02:57;;;;;;;3.53;0.90;;;11.80;99.90;;;;;;5008408;28;20109;-79
2023/10/31 04:05:24;;;;;;;3.50;0.70;;;11.80;99.90;;;;;;5003777;28;20062;-79
2023/10/31 04:07:50;;;;;;;4.40;1.02;;;11.80;99.90;;;;;;5002564;28;20110;-78
2023/10/31 04:10:18;;;;;;;2.95;0.80;;;11.80;99.90;;;;;;5012271;28;20422;-79
2023/10/31 04:12:45;;;;;;;2.38;0.80;;;11.80;99.90;;;;;;5005775;28;20483;-77
2023/10/31 04:15:12;;;;;;;4.15;0.73;;;11.80;99.90;;;;;;5000643;28;20050;-78
2023/10/31 04:17:39;;;;;;;5.70;0.82;;;11.80;99.90;;;;;;5004329;28;20038;-78
2023/10/31 04:20:06;;;;;;;3.63;0.70;;;11.80;99.90;;;;;;5001852;28;20060;-78
2023/10/31 04:22:33;;;;;;;6.70;1.20;;;11.90;99.90;;;;;;4997722;28;20078;-79
2023/10/31 04:25:00;;;;;;;4.78;0.82;;;11.90;99.90;;;;;;5000337;28;20549;-78
2023/10/31 04:27:26;;;;;;;7.20;1.20;;;11.90;99.90;;;;;;4998151;28;20051;-78
2023/10/31 04:29:53;;;;;;;2.92;1.17;;;11.90;99.90;;;;;;5002760;28;20096;-78
2023/10/31 04:32:20;;;;;;;4.93;0.85;;;11.90;99.90;;;;;;5003606;28;20112;-79
2023/10/31 04:34:47;;;;;;;3.20;0.93;;;11.90;99.90;;;;;;5020349;28;20540;-79
2023/10/31 04:37:13;;;;;;;3.30;1.27;;;11.90;99.90;;;;;;5002280;28;20270;-78
2023/10/31 04:39:40;;;;;;;4.90;1.23;;;11.90;99.90;;;;;;4999133;28;20462;-78
2023/10/31 04:42:07;;;;;;;6.00;1.08;;;11.90;99.90;;;;;;4994226;28;20113;-77
2023/10/31 04:44:33;;;;;;;8.00;0.90;;;11.90;99.90;;;;;;5007622;28;20105;-77
2023/10/31 04:47:00;;;;;;;3.58;1.08;;;11.90;99.90;;;;;;5014878;28;20058;-78
2023/10/31 04:49:27;;;;;;;3.92;0.98;;;11.90;99.90;;;;;;5003830;28;20082;-79
2023/10/31 04:51:54;;;;;;;8.43;1.70;;;11.80;99.90;;;;;;5000801;28;20116;-77
2023/10/31 04:54:21;;;;;;;7.22;1.10;;;11.80;99.90;;;;;;4998597;28;20494;-79
2023/10/31 04:56:48;;;;;;;3.33;0.80;;;11.80;99.90;;;;;;4999607;28;20037;-79
2023/10/31 04:59:14;;;;;;;3.33;1.10;;;11.80;99.90;;;;;;5001758;28;20101;-78
2023/10/31 05:01:41;;;;;;;4.28;0.82;;;11.80;99.90;;;;;;5006030;28;20410;-77
2023/10/31 05:04:08;;;;;;;6.88;0.90;;;11.80;99.90;;;;;;4999049;28;20506;-77
2023/10/31 05:06:39;;;;;;;7.88;0.90;;;11.70;99.90;;;;;;4995830;28;20042;-77
2023/10/31 05:09:06;;;;;;;4.00;0.95;;;11.70;99.90;;;;;;4998191;28;20506;-77
2023/10/31 05:11:33;;;;;;;3.42;0.85;;;11.70;99.90;;;;;;5000803;28;20053;-77
2023/10/31 05:14:00;;;;;;;3.53;0.95;;;11.70;99.90;;;;;;5004716;28;20105;-77
2023/10/31 05:16:27;;;;;;;4.63;0.90;;;11.70;99.90;;;;;;5001944;28;20102;-77
2023/10/31 05:18:53;;;;;;;5.65;0.98;;;11.70;99.90;;;;;;5016013;28;20050;-78
2023/10/31 05:21:20;;;;;;;11.07;1.45;;;11.70;99.90;;;;;;4994734;28;20470;-78
2023/10/31 05:23:47;;;;;;;10.23;1.13;;;11.70;99.90;;;;;;4998632;28;20117;-78
2023/10/31 05:26:14;;;;;;;5.88;1.27;;;11.70;99.90;;;;;;5001610;28;20074;-77
2023/10/31 05:28:41;;;;;;;5.00;1.00;;;11.70;99.90;;;;;;5006778;28;20464;-78
2023/10/31 05:31:07;;;;;;;7.60;1.08;;;11.70;99.90;;;;;;5001160;28;20070;-77
2023/10/31 05:33:34;;;;;;;5.15;1.13;;;11.70;99.90;;;;;;5002541;28;20046;-79
2023/10/31 05:36:02;;;;;;;6.75;1.40;;;11.70;99.90;;;;;;4997663;28;20053;-77
2023/10/31 05:38:28;;;;;;;4.28;1.00;;;11.70;99.90;;;;;;4994904;28;20050;-77
2023/10/31 05:40:55;;;;;;;8.75;1.00;;;11.80;99.90;;;;;;5001418;28;20042;-78
2023/10/31 05:43:22;;;;;;;3.95;0.98;;;11.80;99.90;;;;;;5001970;28;20070;-78
2023/10/31 05:45:49;;;;;;;5.25;0.70;;;11.80;99.90;;;;;;5001015;28;20414;-78
2023/10/31 05:48:16;;;;;;;9.00;2.70;;;11.80;99.90;;;;;;4996831;28;20582;-77
2023/10/31 05:50:42;;;;;;;4.07;1.35;;;11.90;99.90;;;;;;4997635;28;20057;-78
2023/10/31 05:53:09;;;;;;;3.47;0.77;;;11.90;99.90;;;;;;4995485;28;20046;-78
2023/10/31 05:55:39;;;;;;;2.08;1.25;;;11.90;99.90;;;;;;5005002;28;20142;-78
2023/10/31 05:58:06;;;;;;;6.68;1.20;;;11.90;99.90;;;;;;5015947;28;20050;-78
2023/10/31 06:00:33;;;;;;;4.22;1.30;;;11.90;99.90;;;;;;5005291;28;20564;-77
2023/10/31 06:02:59;;;;;;;2.63;1.00;;;11.90;99.90;;;;;;5001533;28;20101;-77
2023/10/31 06:05:26;;;;;;;5.43;1.27;;;11.90;99.90;;;;;;5000504;28;20050;-78
2023/10/31 06:07:53;;;;;;;5.30;1.67;;;11.90;99.90;;;;;;4997562;28;20112;-77
2023/10/31 06:10:21;;;;;;;5.45;2.05;;;11.90;99.90;;;;;;5005662;28;20422;-77
2023/10/31 06:12:48;;;;;;;7.85;1.50;;;11.90;99.90;;;;;;5005981;28;20484;-78
2023/10/31 06:15:14;;;;;;;11.40;2.33;;;11.90;99.90;;;;;;5002226;28;20056;-79
2023/10/31 06:17:41;;;;;;;8.05;1.00;;;11.90;99.90;;;;;;5009211;28;20100;-79
2023/10/31 06:20:09;;;;;;;4.43;1.15;;;11.90;99.90;;;;;;5000215;28;20498;-79
2023/10/31 06:22:35;;;;;;;7.85;1.20;;;11.80;99.90;;;;;;5009167;28;20046;-76
2023/10/31 06:25:03;;;;;;;6.97;1.00;;;11.80;99.90;;;;;;5014628;28;20081;-78
2023/10/31 06:27:29;;;;;;;5.05;1.02;;;11.90;99.90;;;;;;5006247;28;20672;-79
2023/10/31 06:29:56;;;;;;;3.95;0.95;;;11.90;99.90;;;;;;5002874;28;20411;-78
2023/10/31 06:32:43;;;;;;;3.15;0.98;;;11.90;99.90;;;;;;5002564;28;20052;-78
2023/10/31 06:35:10;;;;;;;5.63;1.20;;;11.90;99.90;;;;;;4998118;28;20046;-79
2023/10/31 06:37:36;;;;;;;4.57;1.35;;;11.90;99.90;;;;;;5005405;28;20054;-77
2023/10/31 06:40:04;;;;;;;4.22;0.90;;;11.90;99.90;;;;;;5006914;28;20082;-78
2023/10/31 06:42:31;;;;;;;2.22;1.05;;;11.90;99.90;;;;;;5005931;28;20105;-78
2023/10/31 06:44:58;;;;;;;3.20;0.82;;;11.90;99.90;;;;;;5004026;28;20120;-77
2023/10/31 06:47:24;;;;;;;1.70;0.70;;;11.90;99.90;;;;;;5001889;28;20530;-77
2023/10/31 06:49:51;;;;;;;4.13;0.95;;;11.90;99.90;;;;;;4997452;28;20046;-78
2023/10/31 06:52:18;;;;;;;4.05;1.08;;;11.90;99.90;;;;;;5006585;28;20096;-78
2023/10/31 06:54:45;;;;;;;3.08;0.82;;;12.00;99.90;;;;;;5008327;28;20064;-77
2023/10/31 06:57:11;;;;;;;7.57;0.90;;;12.00;99.90;;;;;;5003705;28;20058;-78
2023/10/31 06:59:38;;;;;;;3.00;0.80;;;12.00;99.90;;;;;;5003334;28;20529;-78
2023/10/31 07:02:05;;;;;;;3.90;1.10;;;12.00;99.90;;;;;;5000407;28;20050;-78
2023/10/31 07:04:32;;;;;;;2.58;0.95;;;12.00;99.90;;;;;;5000536;28;20054;-78
2023/10/31 07:06:58;;;;;;;1.20;0.85;;;12.00;99.90;;;;;;5013100;28;20084;-77
2023/10/31 07:09:26;;;;;;;4.72;0.88;;;12.00;99.90;;;;;;5015231;28;20072;-78
2023/10/31 07:11:53;;;;;;;4.25;0.80;;;12.00;99.90;;;;;;5012535;28;20046;-77
2023/10/31 07:14:20;;;;;;;7.45;0.80;;;11.90;99.90;;;;;;5014110;28;20108;-76
2023/10/31 07:16:48;;;;;;;3.33;0.90;;;11.90;99.90;;;;;;5010842;28;20054;-76
2023/10/31 07:19:15;;;;;;;4.57;0.90;;;11.90;99.90;;;;;;5011157;28;20046;-77
2023/10/31 07:21:42;;;;;;;6.95;0.90;;;11.90;99.90;;;;;;5020629;28;20054;-77
2023/10/31 07:24:09;;;;;;;3.13;0.80;;;12.00;99.90;;;;;;5016111;28;20057;-77
2023/10/31 07:26:36;;;;;;;4.78;1.05;;;12.00;99.90;;;;;;5016283;28;20101;-77
2023/10/31 07:29:03;;;;;;;3.10;0.80;;;12.00;99.90;;;;;;5007308;28;20065;-77
2023/10/31 07:31:29;;;;;;;1.90;0.73;;;12.00;99.90;;;;;;5008076;28;20055;-77
2023/10/31 07:33:56;;;;;;;1.30;0.70;;;12.10;99.90;;;;;;5012243;28;20046;-77
2023/10/31 07:36:23;;;;;;;3.53;0.85;;;12.00;99.90;;;;;;5011256;28;20058;-78
2023/10/31 07:38:50;;;;;;;2.42;0.60;;;12.10;99.90;;;;;;5010981;28;20586;-77
2023/10/31 07:41:17;;;;;;;2.97;0.60;;;12.10;99.90;;;;;;5000884;28;20057;-77
2023/10/31 07:43:43;;;;;;;3.55;0.70;;;12.10;99.90;;;;;;4993274;28;20757;-77
2023/10/31 07:46:10;;;;;;;1.50;0.70;;;12.10;99.90;;;;;;4997645;28;20536;-77
2023/10/31 07:48:37;;;;;;;4.22;0.90;;;12.10;99.90;;;;;;4996703;28;20503;-77
2023/10/31 07:51:04;;;;;;;1.83;0.68;;;12.10;99.90;;;;;;5003196;28;20046;-75
2023/10/31 07:53:31;;;;;;;4.68;1.05;;;12.10;99.90;;;;;;5004074;28;20046;-77
2023/10/31 07:55:58;;;;;;;2.47;0.82;;;12.20;99.90;;;;;;5003997;28;20105;-77
2023/10/31 07:58:24;;;;;;;1.75;0.63;;;12.10;99.90;;;;;;5004228;28;20081;-76
2023/10/31 08:00:51;;;;;;;2.22;0.70;;;12.10;99.90;;;;;;5019508;28;20070;-76
2023/10/31 08:03:18;;;;;;;0.95;0.52;;;12.20;99.90;;;;;;5005441;28;20046;-76
2023/10/31 08:05:45;;;;;;;3.58;0.65;;;12.10;99.90;;;;;;5011783;28;20176;-75
2023/10/31 08:08:12;;;;;;;4.60;1.63;;;12.20;99.90;;;;;;5006658;28;20074;-76
2023/10/31 08:10:39;;;;;;;2.08;0.50;;;12.20;99.90;;;;;;5003894;28;20050;-77
2023/10/31 08:13:05;;;;;;;1.55;0.63;;;12.20;99.90;;;;;;5003226;28;20046;-77
2023/10/31 08:15:32;;;;;;;2.78;0.80;;;12.20;99.90;;;;;;4989110;28;20110;-77
2023/10/31 08:17:59;;;;;;;2.45;0.57;;;12.20;99.90;;;;;;4996354;28;20045;-78
2023/10/31 08:20:26;;;;;;;3.33;1.20;;;12.20;99.90;;;;;;5000145;28;20097;-77
2023/10/31 08:22:53;;;;;;;3.03;0.70;;;12.30;99.90;;;;;;4999214;28;20049;-79
2023/10/31 08:25:20;;;;;;;3.53;0.77;;;12.30;99.90;;;;;;4997716;28;20054;-78
2023/10/31 08:27:46;;;;;;;2.13;0.60;;;12.30;99.90;;;;;;4995488;28;20054;-77
2023/10/31 08:30:14;;;;;;;2.15;0.77;;;12.30;99.90;;;;;;4996243;28;20407;-78
2023/10/31 08:32:41;;;;;;;1.17;0.70;;;12.30;99.90;;;;;;5003712;28;20080;-78
2023/10/31 08:35:08;;;;;;;2.45;0.65;;;12.40;99.90;;;;;;5015486;28;20526;-78
2023/10/31 08:37:35;;;;;;;4.57;0.90;;;12.40;99.90;;;;;;4999228;28;20043;-78
2023/10/31 08:40:04;;;;;;;3.45;0.80;;;12.40;99.90;;;;;;4997698;28;20105;-78
2023/10/31 08:42:31;;;;;;;5.00;0.90;;;12.40;99.90;;;;;;4995631;28;20049;-77
2023/10/31 08:44:58;;;;;;;2.55;1.05;;;12.50;99.90;;;;;;4990130;28;20117;-78
2023/10/31 08:47:24;;;;;;;3.58;1.10;;;12.50;99.90;;;;;;5001101;28;20082;-78
2023/10/31 08:49:51;;;;;;;3.58;1.10;;;12.50;99.90;;;;;;4999373;28;20521;-77
2023/10/31 08:52:18;;;;;;;1.85;0.70;;;12.60;99.90;;;;;;4996512;28;20510;-77
2023/10/31 08:54:45;;;;;;;3.78;0.70;;;12.60;99.90;;;;;;4997372;28;20073;-78
2023/10/31 08:57:12;;;;;;;2.40;0.60;;;12.70;99.90;;;;;;4995398;28;20050;-77
2023/10/31 08:59:39;;;;;;;2.63;0.80;;;12.70;99.90;;;;;;4995143;28;20050;-76
2023/10/31 09:02:06;;;;;;;1.65;0.65;;;12.80;99.90;;;;;;5002087;28;20057;-77
2023/10/31 09:04:33;;;;;;;2.53;0.52;;;12.80;99.90;;;;;;4998395;28;20046;-77
2023/10/31 09:06:59;;;;;;;3.00;0.70;;;12.80;99.90;;;;;;4997723;28;20053;-80
2023/10/31 09:09:26;;;;;;;3.33;0.60;;;12.80;99.90;;;;;;4995239;28;20104;-77
2023/10/31 09:11:53;;;;;;;4.63;0.60;;;12.90;99.90;;;;;;4998116;28;20045;-79
2023/10/31 09:14:20;;;;;;;2.60;0.82;;;12.90;99.90;;;;;;5000354;28;20042;-79
2023/10/31 09:16:47;;;;;;;2.50;0.65;;;12.90;99.90;;;;;;5004927;28;20042;-79
2023/10/31 09:19:15;;;;;;;6.75;0.95;;;13.00;99.90;;;;;;5001650;28;20042;-79
2023/10/31 09:21:41;;;;;;;2.65;1.02;;;13.00;99.90;;;;;;5001474;28;20065;-79
2023/10/31 09:24:09;;;;;;;1.35;0.70;;;13.10;99.90;;;;;;4993783;28;20089;-78
2023/10/31 09:26:35;;;;;;;2.17;0.77;;;13.20;99.90;;;;;;5003601;28;20116;-77
2023/10/31 09:29:03;;;;;;;3.17;0.80;;;13.20;99.90;;;;;;5004841;28;20068;-79
2023/10/31 09:31:30;;;;;;;1.63;0.82;;;13.30;99.90;;;;;;5006360;28;20461;-80
2023/10/31 09:33:56;;;;;;;3.20;0.73;;;13.30;99.90;;;;;;5014009;28;20464;-79
2023/10/31 09:36:24;;;;;;;2.50;0.90;;;13.30;99.90;;;;;;5003618;28;20070;-79
2023/10/31 09:38:50;;;;;;;2.30;0.80;;;13.40;99.90;;;;;;5000148;28;20050;-77
2023/10/31 09:41:18;;;;;;;1.30;0.60;;;13.40;99.90;;;;;;4997718;28;20422;-77
2023/10/31 09:43:45;;;;;;;3.40;0.75;;;13.50;99.90;;;;;;5002588;28;20546;-77
2023/10/31 09:46:12;;;;;;;1.58;0.68;;;13.50;99.90;;;;;;5004616;28;20121;-80
2023/10/31 09:48:39;;;;;;;6.60;2.05;;;13.60;99.90;;;;;;5002964;28;20425;-77
2023/10/31 09:51:10;;;;;;;2.20;0.80;;;13.70;99.90;;;;;;5001899;28;20536;-79
2023/10/31 09:53:41;;;;;;;2.05;0.70;;;13.70;99.90;;;;;;4999131;28;20465;-77
2023/10/31 09:56:09;;;;;;;4.47;1.30;;;13.70;99.90;;;;;;4997162;28;20112;-78
2023/10/31 09:58:36;;;;;;;3.53;1.58;;;13.80;99.90;;;;;;5007275;28;20402;-77
2023/10/31 10:01:03;;;;;;;3.70;1.35;;;13.80;99.90;;;;;;5009088;28;20472;-77
2023/10/31 10:03:29;;;;;;;5.28;1.20;;;13.80;99.90;;;;;;5004739;28;20043;-79
2023/10/31 10:05:58;;;;;;;3.83;1.52;;;13.90;99.90;;;;;;5012036;28;20069;-76
2023/10/31 10:08:24;;;;;;;2.65;0.98;;;13.90;99.90;;;;;;5001637;28;20046;-78
2023/10/31 10:10:52;;;;;;;2.60;0.90;;;13.90;99.90;;;;;;5016588;28;20057;-77
2023/10/31 10:13:20;;;;;;;3.88;0.90;;;13.90;99.90;;;;;;5033274;28;20112;-78
2023/10/31 10:15:49;;;;;;;1.95;0.68;;;14.00;99.90;;;;;;5009183;28;20112;-76
2023/10/31 10:18:29;;;;;;;2.92;0.90;;;14.00;99.90;;;;;;5011957;28;20045;-76
2023/10/31 10:20:56;;;;;;;;;;;14.10;99.90;;;;;;5009010;28;20038;-78
2023/10/31 10:23:24;;;;;;;4.40;0.93;;;14.10;99.90;;;;;;4997628;28;19922;-78
2023/10/31 10:25:52;;;;;;;7.07;0.90;;;14.20;99.90;;;;;;4999021;28;20528;-78
2023/10/31 10:28:19;;;;;;;1.00;0.70;;;14.20;99.90;;;;;;5002011;28;20520;-77
2023/10/31 10:30:49;;;;;;;2.42;0.88;;;14.30;99.90;;;;;;5002210;28;20093;-78
2023/10/31 10:33:16;;;;;;;1.33;0.85;;;14.30;99.90;;;;;;4998749;28;20046;-78
2023/10/31 10:35:43;;;;;;;1.75;0.80;;;14.30;99.90;;;;;;4997133;28;20077;-76
2023/10/31 10:38:12;;;;;;;3.67;0.82;;;14.30;99.90;;;;;;5008587;28;20073;-78
2023/10/31 10:40:47;;;;;;;2.70;0.95;;;14.30;99.90;;;;;;5000068;28;20513;-78
2023/10/31 10:43:22;;;;;;;1.10;0.60;;;14.30;99.90;;;;;;5004524;28;20144;-78
2023/10/31 10:45:59;;;;;;;1.70;1.02;;;14.30;99.90;;;;;;5002825;28;20050;-77
2023/10/31 10:48:27;;;;;;;3.45;0.50;;;14.30;99.90;;;;;;4996573;28;20046;-77
2023/10/31 10:51:05;;;;;;;4.57;0.60;;;14.20;99.90;;;;;;4999139;28;20043;-76
2023/10/31 10:53:40;;;;;;;2.25;0.60;;;14.20;99.90;;;;;;4996166;28;20045;-78
2023/10/31 10:56:16;;;;;;;7.15;0.90;;;14.30;99.90;;;;;;4998041;28;20513;-76
2023/10/31 10:58:48;;;;;;;2.20;0.85;;;14.20;99.90;;;;;;5001295;28;20092;-78
2023/10/31 11:01:18;;;;;;;2.00;0.52;;;14.20;99.90;;;;;;4999206;28;20038;-78
2023/10/31 11:03:46;;;;;;;2.30;0.70;;;14.20;99.90;;;;;;4999861;28;20065;-78
2023/10/31 11:06:14;;;;;;;3.60;0.88;;;14.20;99.90;;;;;;4993482;28;20533;-77
2023/10/31 11:08:42;;;;;;;3.75;0.60;;;14.20;99.90;;;;;;5009914;28;20054;-78
2023/10/31 11:11:10;;;;;;;1.30;0.50;;;14.30;99.90;;;;;;5020303;28;20054;-77
2023/10/31 11:13:37;;;;;;;2.17;0.70;;;14.30;99.90;;;;;;5001058;28;20105;-78
2023/10/31 11:16:15;;;;;;;1.15;0.60;;;14.30;99.90;;;;;;4998963;28;20450;-78
2023/10/31 11:18:43;;;;;;;0.75;0.50;;;14.40;99.90;;;;;;4993937;28;20053;-78
2023/10/31 11:21:10;;;;;;;3.28;0.60;;;14.50;99.90;;;;;;4996095;28;20067;-77
2023/10/31 11:23:39;;;;;;;2.20;0.60;;;14.50;99.90;;;;;;4997905;28;20053;-78
2023/10/31 11:26:09;;;;;;;3.00;0.73;;;14.60;99.90;;;;;;5001230;28;20042;-78
2023/10/31 11:28:36;;;;;;;;;;;14.60;99.90;;;;;;4999078;28;20490;-77
2023/10/31 11:31:04;;;;;;;1.05;0.52;;;14.70;99.90;;;;;;5006999;28;19921;-77
2023/10/31 11:33:31;;;;;;;1.13;0.52;;;14.70;99.90;;;;;;4996862;28;20042;-78
2023/10/31 11:36:02;;;;;;;1.33;0.38;;;14.70;99.90;;;;;;4996240;28;20046;-77
2023/10/31 11:38:35;;;;;;;1.67;0.55;;;14.60;99.90;;;;;;5001685;28;20556;-78
2023/10/31 11:41:04;;;;;;;1.95;0.40;;;14.70;99.90;;;;;;5003313;28;20102;-78
2023/10/31 11:43:40;;;;;;;0.82;0.52;;;14.60;99.90;;;;;;4998118;28;20042;-76
2023/10/31 11:46:26;;;;;;;1.95;0.50;;;14.70;99.90;;;;;;4998056;28;20488;-78
2023/10/31 11:48:59;;;;;;;1.60;0.60;;;14.60;99.90;;;;;;4992477;28;20057;-78
2023/10/31 11:51:26;;;;;;;0.82;0.40;;;14.60;99.90;;;;;;4999171;28;20069;-77
2023/10/31 11:53:53;;;;;;;1.35;0.60;;;14.60;99.90;;;;;;5003224;28;20513;-77
2023/10/31 11:56:21;;;;;;;1.75;0.40;;;14.60;99.90;;;;;;5016403;28;20041;-77
2023/10/31 11:59:07;;;;;;;1.20;0.50;;;14.50;99.90;;;;;;5003548;28;20038;-78
2023/10/31 12:01:34;;;;;;;1.70;0.80;;;14.50;99.90;;;;;;5009785;28;20125;-78
2023/10/31 12:04:00;;;;;;;1.02;0.45;;;14.50;99.90;;;;;;4994958;28;20061;-78
2023/10/31 12:06:30;;;;;;;0.82;0.30;;;14.50;99.90;;;;;;4998122;28;20104;-78
2023/10/31 12:09:00;;;;;;;0.50;0.50;;;14.50;99.90;;;;;;5002952;28;20469;-77
2023/10/31 12:11:27;;;;;;;0.98;0.50;;;14.40;99.90;;;;;;4998196;28;20046;-78
2023/10/31 12:13:56;;;;;;;1.02;0.43;;;14.40;99.90;;;;;;4998497;28;20132;-77
2023/10/31 12:16:28;;;;;;;0.60;0.30;;;14.30;99.90;;;;;;4993387;28;20046;-78
2023/10/31 12:18:57;;;;;;;0.80;0.30;;;14.30;99.90;;;;;;4995768;28;20502;-78
2023/10/31 12:21:49;;;;;;;2.38;0.43;;;14.30;99.90;;;;;;5000141;28;20096;-78
2023/10/31 12:24:17;;;;;;;0.98;0.30;;;14.20;99.90;;;;;;4997649;28;20528;-78
2023/10/31 12:26:46;;;;;;;1.65;0.43;;;14.10;99.90;;;;;;4997993;28;20050;-78
2023/10/31 12:29:19;;;;;;;0.50;0.32;;;14.00;99.90;;;;;;5001460;28;20521;-76
2023/10/31 12:31:54;;;;;;;0.85;0.20;;;13.90;99.90;;;;;;5000849;28;20046;-76
2023/10/31 12:34:23;;;;;;;2.05;0.20;;;13.90;99.90;;;;;;4997990;28;20045;-78
2023/10/31 12:36:52;;;;;;;3.25;0.30;;;13.70;99.90;;;;;;5004582;28;20058;-79
2023/10/31 12:39:22;;;;;;;1.65;0.22;;;13.70;99.90;;;;;;5003684;28;20455;-79
2023/10/31 12:41:49;;;;;;;0.85;0.40;;;13.70;99.90;;;;;;5000842;28;20051;-78
2023/10/31 12:44:27;;;;;;;0.22;0.22;;;13.70;99.90;;;;;;5000547;28;20054;-78
2023/10/31 12:46:55;;;;;;;0.82;0.40;;;13.70;99.90;;;;;;4992064;28;20138;-79
2023/10/31 12:49:23;;;;;;;0.90;0.63;;;13.70;99.90;;;;;;5004363;28;20088;-79